Windom, MN

5:58 PM CST on March 04, 2015 (GMT -0600)
Jackson Municipal | Change Station
CLOSE
Current Station
Airport
Location: Jackson,
Elevation: 1447 ft
Nearby Weather Stations

Elev 1447 ft 43.65 °N, 94.99 °W | Updated 5 minutes ago

Partly Cloudy
Partly Cloudy
9 °F
Feels Like -11 °F
N
22
Wind Variable Wind from NW
Gusts 29 mph

Today
High -- | Low -- °F
--% Chance of Precip.
Yesterday
High -- | Low -- °F
Precip. -- in
6:52 AM 6:12 PM
Waxing Gibbous, 99% visible
Pressure 30.29 in
Visibility 7.0 miles
Clouds Scattered Clouds 1300 ft
Scattered Clouds 1900 ft
Mostly Cloudy 2700 ft
Windchill -11 °F
Dew Point -4 °F
Humidity 57%
Rainfall 0.00 in
Snow Depth Not available.
UV 0 out of 12
Pollen .40 out of 12
Air Quality Not available.
Flu Activity Not available.
METAR KMJQ 042353Z AUTO 32019G25KT 7SM SCT013 SCT019 BKN027 M13/M20 A3029 RMK AO2

More Conditions Fewer Conditions

Pressure 30.29 in
Visibility 7.0 miles
Clouds Scattered Clouds 1300 ft
Scattered Clouds 1900 ft
Mostly Cloudy 2700 ft
Windchill -11 °F
Dew Point -4 °F
Humidity 57%
Rainfall 0.00 in
Snow Depth Not available.
UV 0 out of 12
Pollen .40 out of 12
Air Quality Not available.
Flu Activity Not available.
METAR KMJQ 042353Z AUTO 32019G25KT 7SM SCT013 SCT019 BKN027 M13/M20 A3029 RMK AO2

More Conditions Fewer Conditions

10-Day Weather Forecast

Almanac

Astronomy

Mar. 04, 2015 Rise Set
Actual Time
Civil Twilight
Nautical Twilight
Astronomical Twilight
Moon
Length of Visible Light
Length of Day
Tomorrow will be .
, % of the Moon is Illuminated

Today's Extremes

State Highs State Lows

Community

WunderPhotos

Upload Photos

1,802,605 photos uploaded!

WunderBlogs® & News

Nearby

Air Quality

  Air Quality AQ Index Pollutant
Not available.

Snow Depth

Station Depth Elevation

Earthquake Activity

City Distance Mag. Time & Date
Minimum magnitude displayed is 2.5.

Coastal Water Temperatures

Place Temperature

Nearby Weather Stations